Time;durP1;ratioP1;P1;durP2;ratioP2;P2;SDS_P1;SDS_P2;PMS_P1;PMS_P2;Temp;Humidity;BMP_temperature;BMP_pressure;BME280_temperature;BME280_humidity;BME280_pressure;Samples;Min_cycle;Max_cycle;Signal;HPM_P1;HPM_P2
2021/11/08 00:00:04;;;;;;;9.20;2.38;;;;;;;7.54;94.47;102174.41;5047670;28;20106;-86
2021/11/08 00:02:30;;;;;;;8.45;1.60;;;;;;;7.51;94.20;102164.84;5033889;28;20025;-86
2021/11/08 00:04:56;;;;;;;18.05;2.78;;;;;;;7.49;94.54;102162.28;5066550;28;20043;-86
2021/11/08 00:07:21;;;;;;;13.20;1.98;;;;;;;7.44;94.64;102155.31;5073361;28;20206;-86
2021/11/08 00:09:47;;;;;;;9.00;2.53;;;;;;;7.33;94.24;102154.53;5077255;28;20036;-86
2021/11/08 00:12:13;;;;;;;12.60;2.22;;;;;;;7.21;93.81;102158.09;5092041;28;20271;-86
2021/11/08 00:14:41;;;;;;;16.38;2.90;;;;;;;7.10;93.53;102155.53;5056466;28;20232;-86
2021/11/08 00:20:11;;;;;;;9.40;1.95;;;;;;;6.89;93.54;102159.09;5048932;28;20058;-86
2021/11/08 00:22:39;;;;;;;;;;;;;;;6.76;93.57;102170.44;5075693;28;20028;-86
2021/11/08 00:25:04;;;;;;;25.10;3.85;;;;;;;6.67;93.80;102164.38;5100372;28;19923;-86
2021/11/08 00:27:30;;;;;;;11.45;2.25;;;;;;;6.58;93.93;102150.53;5081261;28;20028;-86
2021/11/08 00:29:55;;;;;;;12.73;2.28;;;;;;;6.51;94.08;102153.19;5082238;28;20032;-86
2021/11/08 00:32:21;;;;;;;8.77;2.35;;;;;;;6.51;94.42;102150.56;5044982;28;20035;-86
2021/11/08 00:34:46;;;;;;;14.13;2.58;;;;;;;6.50;94.83;102146.22;5048776;28;20028;-86
2021/11/08 00:37:12;;;;;;;12.90;2.00;;;;;;;6.50;95.13;102147.97;5067991;28;20036;-86
2021/11/08 00:39:38;;;;;;;12.70;2.25;;;;;;;6.44;95.23;102150.56;5058761;28;20064;-86
2021/11/08 00:42:04;;;;;;;15.75;2.30;;;;;;;6.39;95.10;102163.59;5075834;28;20047;-86
2021/11/08 00:44:29;;;;;;;18.35;2.03;;;;;;;6.37;95.26;102170.56;5077847;28;20040;-86
2021/11/08 00:46:56;;;;;;;14.43;2.35;;;;;;;6.31;95.39;102171.44;5063879;28;20073;-86
2021/11/08 00:49:23;;;;;;;13.02;2.20;;;;;;;6.26;95.31;102174.91;5080245;28;20346;-86
2021/11/08 00:51:48;;;;;;;11.43;2.17;;;;;;;6.26;95.58;102180.13;5055632;28;20064;-86
2021/11/08 00:54:15;;;;;;;9.07;1.92;;;;;;;6.27;95.69;102184.44;5077245;28;20035;-86
2021/11/08 00:56:43;;;;;;;12.65;2.40;;;;;;;6.29;96.07;102180.09;5065782;28;20041;-85
2021/11/08 00:59:08;;;;;;;6.72;1.98;;;;;;;6.28;96.00;102181.84;5066258;28;20039;-86
2021/11/08 01:01:35;;;;;;;10.43;2.17;;;;;;;6.29;95.98;102175.78;5072259;28;20327;-86
2021/11/08 01:04:00;;;;;;;10.65;2.10;;;;;;;6.27;95.95;102176.63;5065669;28;20047;-86
2021/11/08 01:06:26;;;;;;;13.32;2.42;;;;;;;6.24;95.79;102182.72;5052542;28;20350;-86
2021/11/08 01:08:52;;;;;;;11.23;2.10;;;;;;;6.25;95.89;102188.78;5081280;28;20067;-86
2021/11/08 01:11:17;;;;;;;7.65;1.92;;;;;;;6.23;95.92;102180.97;5092503;28;20044;-86
2021/11/08 01:13:43;;;;;;;6.63;2.30;;;;;;;6.26;95.96;102173.16;5066892;28;20032;-85
2021/11/08 01:16:08;;;;;;;11.48;2.17;;;;;;;6.31;96.19;102186.16;5065454;28;20043;-86
2021/11/08 01:18:34;;;;;;;14.00;3.00;;;;;;;6.34;96.39;102183.56;5085251;28;20040;-86
2021/11/08 01:20:59;;;;;;;10.55;2.08;;;;;;;6.36;96.23;102191.38;5070701;28;20047;-86
2021/11/08 01:23:28;;;;;;;11.88;2.28;;;;;;;6.39;96.43;102181.81;5085228;28;20043;-86
2021/11/08 01:25:58;;;;;;;14.57;3.00;;;;;;;6.43;96.30;102186.16;5068388;28;20027;-86
2021/11/08 01:28:31;;;;;;;10.88;2.55;;;;;;;6.47;96.40;102176.59;5065171;28;20108;-86
2021/11/08 01:30:57;;;;;;;7.05;1.90;;;;;;;6.48;96.52;102175.75;5049657;28;20089;-86
2021/11/08 01:33:23;;;;;;;13.25;2.50;;;;;;;6.48;96.79;102183.56;5065104;28;20032;-86
2021/11/08 01:38:37;;;;;;;11.85;2.47;;;;;;;6.48;96.87;102180.94;5069203;28;20544;-86
2021/11/08 01:41:03;;;;;;;13.50;3.10;;;;;;;6.50;97.12;102174.00;5087307;28;20028;-86
2021/11/08 01:43:28;;;;;;;16.33;2.90;;;;;;;6.48;96.68;102181.81;5066938;28;20202;-86
2021/11/08 01:45:54;;;;;;;14.43;2.78;;;;;;;6.48;96.65;102180.94;5084349;28;20046;-86
2021/11/08 01:48:19;;;;;;;9.80;2.42;;;;;;;6.47;96.35;102185.25;5084432;28;20039;-86
2021/11/08 01:50:45;;;;;;;6.95;1.80;;;;;;;6.46;96.48;102190.50;5080394;28;20116;-86
2021/11/08 01:53:11;;;;;;;8.73;2.53;;;;;;;6.45;96.33;102191.34;5065923;28;20040;-86
2021/11/08 01:55:37;;;;;;;14.93;2.15;;;;;;;6.43;96.26;102185.28;5065884;28;20411;-86
2021/11/08 01:58:02;;;;;;;9.05;2.10;;;;;;;6.43;96.20;102177.47;5063042;28;20243;-86
2021/11/08 02:00:28;;;;;;;17.50;2.25;;;;;;;6.41;96.30;102179.22;5065704;28;20100;-86
2021/11/08 02:02:53;;;;;;;15.02;2.47;;;;;;;6.39;96.47;102183.56;5083033;28;20048;-86
2021/11/08 02:05:19;;;;;;;9.48;1.55;;;;;;;6.32;96.25;102175.75;5081881;28;20032;-86
2021/11/08 02:07:45;;;;;;;11.63;2.22;;;;;;;6.26;96.12;102180.97;5066999;28;20032;-86
2021/11/08 02:10:11;;;;;;;12.57;2.30;;;;;;;6.19;96.02;102178.41;5083781;28;20036;-86
2021/11/08 02:12:37;;;;;;;19.55;3.95;;;;;;;6.11;95.96;102175.78;5049581;28;20094;-86
2021/11/08 02:15:04;;;;;;;5.45;2.10;;;;;;;6.05;95.98;102189.66;5077275;28;20377;-86
2021/11/08 02:17:31;;;;;;;12.00;2.60;;;;;;;6.00;96.06;102191.38;5083956;28;20047;-86
2021/11/08 02:19:57;;;;;;;12.02;2.13;;;;;;;5.94;95.99;102192.22;5085677;28;20028;-86
2021/11/08 02:22:23;;;;;;;12.55;2.47;;;;;;;5.91;95.98;102192.25;5067591;28;20258;-86
2021/11/08 02:24:49;;;;;;;11.75;1.73;;;;;;;5.84;96.03;102184.41;5051492;28;20066;-86
2021/11/08 02:27:17;;;;;;;14.90;2.25;;;;;;;5.78;96.13;102182.69;5082165;28;20036;-86
2021/11/08 02:29:43;;;;;;;11.00;2.37;;;;;;;5.76;96.21;102190.47;5053293;28;20036;-86
2021/11/08 02:32:10;;;;;;;13.38;2.15;;;;;;;5.75;96.39;102180.94;5073805;28;20353;-86
2021/11/08 02:34:35;;;;;;;9.63;2.10;;;;;;;5.75;96.52;102170.56;5053535;28;20058;-86
2021/11/08 02:37:00;;;;;;;12.20;2.75;;;;;;;5.74;96.66;102181.81;5065542;28;20267;-86
2021/11/08 02:39:31;;;;;;;7.13;2.28;;;;;;;5.74;96.66;102191.34;5068362;28;20054;-86
2021/11/08 02:41:58;;;;;;;18.77;2.60;;;;;;;5.68;96.70;102183.56;5083236;28;20065;-86
2021/11/08 02:44:23;;;;;;;12.85;2.38;;;;;;;5.64;96.57;102192.19;5066867;28;20055;-86
2021/11/08 02:46:52;;;;;;;12.98;2.33;;;;;;;5.60;96.72;102185.25;5082734;28;20027;-86
2021/11/08 02:49:21;;;;;;;8.60;2.20;;;;;;;5.55;96.54;102174.88;5055330;28;20028;-86
2021/11/08 02:51:54;;;;;;;10.90;2.67;;;;;;;5.54;96.63;102175.72;5062871;28;20347;-86
2021/11/08 02:54:27;;;;;;;10.98;2.70;;;;;;;5.52;96.65;102180.91;5096000;28;20450;-86
2021/11/08 02:56:53;;;;;;;9.80;2.25;;;;;;;5.50;96.79;102185.25;5066911;28;20047;-86
2021/11/08 02:59:19;;;;;;;14.80;3.60;;;;;;;5.51;96.79;102183.50;5077877;28;20351;-85
2021/11/08 03:01:48;;;;;;;11.75;2.78;;;;;;;5.50;96.91;102185.25;5098984;28;20038;-86
2021/11/08 03:04:16;;;;;;;8.45;1.83;;;;;;;5.48;96.75;102186.97;5089248;28;20056;-86
2021/11/08 03:06:42;;;;;;;13.57;2.35;;;;;;;5.46;96.64;102188.72;5051097;28;20347;-86
2021/11/08 03:09:19;;;;;;;9.80;2.20;;;;;;;5.44;96.91;102182.66;5076549;28;20046;-86
2021/11/08 03:11:45;;;;;;;16.13;2.38;;;;;;;5.44;96.97;102180.06;5048942;28;20021;-86
2021/11/08 03:14:14;;;;;;;9.05;2.42;;;;;;;5.42;97.06;102181.78;5064845;28;20133;-86
2021/11/08 03:16:44;;;;;;;8.68;1.85;;;;;;;5.42;97.28;102183.50;5033068;28;20040;-86
2021/11/08 03:21:55;;;;;;;14.43;3.13;;;;;;;5.37;97.29;102189.56;5064864;28;20054;-86
2021/11/08 03:27:04;;;;;;;9.90;2.22;;;;;;;5.33;97.15;102184.31;5084936;28;20324;-86
2021/11/08 03:29:30;;;;;;;9.85;2.63;;;;;;;5.32;97.23;102185.22;5048520;28;20024;-86
2021/11/08 03:31:56;;;;;;;8.13;2.20;;;;;;;5.32;97.31;102191.25;5084282;28;20235;-86
2021/11/08 03:34:22;;;;;;;9.48;3.08;;;;;;;5.31;97.44;102189.53;5072558;28;20036;-86
2021/11/08 03:36:50;;;;;;;13.40;2.78;;;;;;;5.31;97.57;102188.66;5091302;28;20052;-86
2021/11/08 03:39:16;;;;;;;15.55;3.22;;;;;;;5.29;97.55;102191.25;5091960;28;20322;-84
2021/11/08 03:41:42;;;;;;;17.23;2.72;;;;;;;5.26;97.52;102193.00;5067751;28;20210;-84
2021/11/08 03:44:07;;;;;;;12.15;2.70;;;;;;;5.21;97.44;102194.72;5078822;28;20111;-84
2021/11/08 03:46:32;;;;;;;13.52;3.35;;;;;;;5.22;97.52;102199.03;5077602;28;20062;-84
2021/11/08 03:48:58;;;;;;;16.90;2.38;;;;;;;5.22;97.53;102197.31;5067941;28;20024;-84
2021/11/08 03:51:24;;;;;;;12.77;2.80;;;;;;;5.23;97.62;102205.97;5047691;28;20048;-84
2021/11/08 03:53:49;;;;;;;8.25;2.67;;;;;;;5.19;97.54;102216.34;5083407;28;20028;-84
2021/11/08 03:56:14;;;;;;;7.78;2.15;;;;;;;5.19;97.45;102205.94;5082163;28;20093;-83
2021/11/08 03:58:40;;;;;;;11.27;2.05;;;;;;;5.20;97.51;102214.59;5064707;28;20051;-84
2021/11/08 04:01:05;;;;;;;9.77;2.17;;;;;;;5.22;97.66;102212.91;5073599;28;20027;-84
2021/11/08 04:03:31;;;;;;;7.05;1.70;;;;;;;5.24;97.66;102210.28;5080446;28;20032;-84
2021/11/08 04:05:56;;;;;;;14.63;2.63;;;;;;;5.21;97.76;102216.34;5063118;28;20032;-84
2021/11/08 04:08:22;;;;;;;7.43;2.08;;;;;;;5.18;97.77;102221.53;5083379;28;20044;-84
2021/11/08 04:10:52;;;;;;;9.68;2.20;;;;;;;5.18;97.68;102229.31;5065562;28;20051;-84
2021/11/08 04:13:19;;;;;;;13.30;2.53;;;;;;;5.20;97.62;102227.59;5066824;28;20027;-84
2021/11/08 04:15:45;;;;;;;10.40;2.65;;;;;;;5.16;97.75;102231.03;5067635;28;20023;-84
2021/11/08 04:18:17;;;;;;;13.27;2.45;;;;;;;5.10;97.79;102234.47;5065843;28;20278;-84
2021/11/08 04:20:44;;;;;;;7.00;2.08;;;;;;;5.05;97.51;102232.72;5066087;28;20020;-84
2021/11/08 04:23:10;;;;;;;18.02;2.65;;;;;;;5.04;97.40;102230.97;5052565;28;20421;-84
2021/11/08 04:25:36;;;;;;;8.48;2.40;;;;;;;5.03;97.35;102234.44;5066729;28;20058;-84
2021/11/08 04:28:02;;;;;;;6.32;1.52;;;;;;;5.04;97.47;102233.56;5064584;28;20251;-84
2021/11/08 04:30:29;;;;;;;9.98;2.22;;;;;;;5.05;97.38;102233.59;5078325;28;20036;-84
2021/11/08 04:35:42;;;;;;;13.82;2.17;;;;;;;5.11;97.63;102240.53;5049958;28;20220;-84
2021/11/08 04:38:17;;;;;;;8.73;2.33;;;;;;;5.15;97.87;102235.38;5076652;28;20347;-84
2021/11/08 04:51:09;;;;;;;14.13;2.05;;;;;;;5.22;97.90;102232.78;5038051;28;20048;-84
2021/11/08 04:53:42;;;;;;;11.75;2.88;;;;;;;5.22;97.96;102240.56;5048515;28;20024;-84
2021/11/08 05:20:59;;;;;;;10.43;2.15;;;;;;;5.23;97.89;102247.53;5093437;28;20040;-84
2021/11/08 05:31:41;;;;;;;10.63;1.98;;;;;;;5.32;98.23;102258.81;5093289;28;20093;-84
2021/11/08 05:34:06;;;;;;;11.05;1.98;;;;;;;5.36;98.13;102260.53;5083861;28;20048;-84
2021/11/08 05:36:32;;;;;;;8.48;2.25;;;;;;;5.39;98.21;102278.75;5065846;28;20108;-83
2021/11/08 05:38:57;;;;;;;11.80;3.00;;;;;;;5.46;98.22;102278.78;5083341;28;20036;-84
2021/11/08 05:41:23;;;;;;;16.15;2.97;;;;;;;5.50;98.35;102278.78;5096909;28;20055;-84
2021/11/08 05:43:48;;;;;;;12.32;3.22;;;;;;;5.61;98.37;102285.78;5082130;28;20060;-84
2021/11/08 05:46:14;;;;;;;17.75;2.83;;;;;;;5.71;98.54;102288.41;5093565;28;20040;-84
2021/11/08 05:48:39;;;;;;;9.60;2.38;;;;;;;5.80;98.69;102286.69;5101022;28;20110;-84
2021/11/08 05:51:06;;;;;;;24.42;3.05;;;;;;;5.88;98.88;102285.84;5082361;28;20052;-84
2021/11/08 05:53:32;;;;;;;16.67;3.28;;;;;;;5.98;98.97;102289.34;5061876;28;20062;-84
2021/11/08 05:58:51;;;;;;;15.65;2.88;;;;;;;6.16;99.02;102278.09;5064622;28;20029;-84
2021/11/08 06:50:26;;;;;;;11.60;2.47;;;;;;;6.35;98.53;102299.81;5081075;28;20071;-84
2021/11/08 06:52:57;;;;;;;16.90;2.53;;;;;;;6.33;98.47;102293.69;5081557;28;20355;-84
2021/11/08 06:55:22;;;;;;;10.20;2.40;;;;;;;6.32;98.40;102297.19;5063362;28;20333;-84
2021/11/08 06:57:51;;;;;;;11.07;2.80;;;;;;;6.27;98.53;102298.91;5063911;28;20070;-84
2021/11/08 07:00:19;;;;;;;16.92;3.22;;;;;;;6.22;98.29;102306.72;5064480;28;20270;-83
2021/11/08 07:02:44;;;;;;;13.25;3.45;;;;;;;6.17;98.23;102310.16;5047434;28;20036;-84
2021/11/08 07:05:10;;;;;;;13.88;2.30;;;;;;;6.15;98.44;102312.78;5065966;28;20099;-83
2021/11/08 07:07:36;;;;;;;11.73;2.58;;;;;;;6.10;98.33;102315.38;5043464;28;20071;-84
2021/11/08 07:10:01;;;;;;;13.40;2.78;;;;;;;6.12;98.22;102311.03;5046715;28;20047;-84
2021/11/08 07:12:27;;;;;;;26.30;4.25;;;;;;;6.16;98.43;102319.72;5088435;28;20028;-83
2021/11/08 07:14:52;;;;;;;12.65;3.03;;;;;;;6.22;98.51;102319.75;5077856;28;20028;-84
2021/11/08 07:17:18;;;;;;;18.67;3.65;;;;;;;6.24;98.59;102328.41;5069647;28;20031;-84
2021/11/08 07:19:43;;;;;;;13.93;3.15;;;;;;;6.23;98.73;102326.66;5074926;28;20027;-84
2021/11/08 07:22:09;;;;;;;24.23;3.13;;;;;;;6.26;98.64;102331.88;5070580;28;20043;-84
2021/11/08 07:24:34;;;;;;;23.10;3.92;;;;;;;6.29;98.68;102331.91;5070669;28;20351;-84
2021/11/08 07:27:00;;;;;;;12.73;2.72;;;;;;;6.33;98.74;102338.81;5078509;28;20024;-84
2021/11/08 07:29:27;;;;;;;17.55;3.13;;;;;;;6.39;98.91;102337.09;5062857;28;20127;-83
2021/11/08 07:31:52;;;;;;;13.00;2.78;;;;;;;6.42;98.83;102340.56;5070333;28;20323;-84
2021/11/08 07:34:17;;;;;;;18.05;3.35;;;;;;;6.46;98.88;102339.69;5059495;28;20036;-84
2021/11/08 07:36:43;;;;;;;12.63;2.78;;;;;;;6.52;98.85;102347.50;5069386;28;20050;-84
2021/11/08 07:39:08;;;;;;;11.90;2.78;;;;;;;6.58;98.96;102345.78;5072566;28;20326;-83
2021/11/08 07:41:34;;;;;;;14.30;4.22;;;;;;;6.65;98.86;102350.09;5060808;28;20033;-83
2021/11/08 07:43:59;;;;;;;19.08;3.53;;;;;;;6.75;98.88;102345.75;5097437;28;20043;-84
2021/11/08 07:46:25;;;;;;;20.63;4.30;;;;;;;6.82;98.98;102355.31;5058359;28;20027;-84
2021/11/08 07:48:50;;;;;;;22.08;4.15;;;;;;;6.91;99.17;102363.09;5064113;28;20157;-84
2021/11/08 07:51:17;;;;;;;21.42;3.97;;;;;;;6.99;99.05;102361.38;5046913;28;20050;-84
2021/11/08 07:53:43;;;;;;;33.80;4.68;;;;;;;7.06;99.26;102365.69;5061663;28;20032;-83
2021/11/08 07:56:08;;;;;;;28.58;4.75;;;;;;;7.15;99.25;102367.44;5059615;28;20039;-84
2021/11/08 07:58:34;;;;;;;32.47;4.90;;;;;;;7.23;99.42;102364.81;5061975;28;20031;-84
2021/11/08 08:00:59;;;;;;;20.40;4.55;;;;;;;7.32;99.32;102369.13;5060646;28;20048;-84
2021/11/08 08:03:25;;;;;;;28.52;4.90;;;;;;;7.36;99.46;102369.09;5065746;28;20040;-84
2021/11/08 08:05:51;;;;;;;20.95;3.90;;;;;;;7.44;99.35;102377.78;5083291;28;20024;-84
2021/11/08 08:08:16;;;;;;;22.98;4.75;;;;;;;7.49;99.38;102383.84;5044716;28;20028;-84
2021/11/08 08:10:42;;;;;;;13.90;4.60;;;;;;;7.55;99.69;102382.06;5066415;28;20107;-83
2021/11/08 08:13:07;;;;;;;20.15;5.38;;;;;;;7.58;99.72;102382.06;5073996;28;20118;-84
2021/11/08 08:15:33;;;;;;;21.58;4.78;;;;;;;7.61;99.58;102388.16;5075803;28;20190;-83
2021/11/08 08:17:59;;;;;;;28.95;5.55;;;;;;;7.68;99.56;102386.41;5064317;28;20102;-87
2021/11/08 08:20:25;;;;;;;40.80;6.72;;;;;;;7.69;99.57;102393.31;5035600;28;20081;-84
2021/11/08 08:22:50;;;;;;;22.83;6.00;;;;;;;7.72;99.63;102388.09;5051824;28;20125;-84
2021/11/08 08:25:16;;;;;;;20.27;5.15;;;;;;;7.76;99.57;102394.19;5046606;28;20036;-84
2021/11/08 08:27:41;;;;;;;21.00;5.10;;;;;;;7.79;99.88;102400.25;5057477;28;20103;-84
2021/11/08 08:30:08;;;;;;;18.13;5.80;;;;;;;7.81;99.79;102397.63;5041900;28;20053;-84
2021/11/08 08:32:33;;;;;;;23.52;5.65;;;;;;;7.83;99.74;102396.75;5063573;28;20328;-84
2021/11/08 08:34:59;;;;;;;14.02;5.15;;;;;;;7.85;99.76;102405.44;5056516;28;20039;-84
2021/11/08 08:37:24;;;;;;;24.25;5.43;;;;;;;7.88;99.71;102413.25;5068285;28;20067;-84
2021/11/08 08:39:50;;;;;;;18.42;4.90;;;;;;;7.87;99.90;102416.72;5051119;28;20245;-84
2021/11/08 08:42:16;;;;;;;35.20;5.13;;;;;;;7.90;100.00;102409.78;5067849;28;20032;-84
2021/11/08 08:44:41;;;;;;;22.80;4.90;;;;;;;7.91;99.77;102412.34;5073111;28;20039;-84
2021/11/08 08:47:08;;;;;;;28.70;4.38;;;;;;;7.93;99.80;102420.19;5049022;28;20059;-84
2021/11/08 08:49:33;;;;;;;27.05;5.78;;;;;;;7.96;100.00;102417.56;5071222;28;20032;-84
2021/11/08 08:51:58;;;;;;;20.15;4.88;;;;;;;7.98;99.84;102408.00;5039297;28;20044;-84
2021/11/08 08:54:24;;;;;;;16.48;4.75;;;;;;;8.04;99.93;102410.56;5033016;28;20024;-84
2021/11/08 08:56:50;;;;;;;22.05;4.55;;;;;;;8.07;99.94;102407.94;5050139;28;20406;-84
2021/11/08 08:59:18;;;;;;;22.23;4.78;;;;;;;8.12;99.72;102413.16;5044763;28;20037;-84
2021/11/08 09:01:43;;;;;;;20.40;4.68;;;;;;;8.16;99.74;102409.63;5061236;28;20315;-84
2021/11/08 09:04:09;;;;;;;18.65;4.43;;;;;;;8.17;99.65;102409.63;5068251;28;20051;-84
2021/11/08 09:06:35;;;;;;;25.92;5.15;;;;;;;8.19;99.55;102413.09;5065578;28;20037;-84
2021/11/08 09:09:00;;;;;;;16.95;4.57;;;;;;;8.21;99.77;102416.56;5073332;28;20029;-84
2021/11/08 09:11:26;;;;;;;19.95;5.20;;;;;;;8.24;99.49;102423.50;5059327;28;20057;-83
2021/11/08 09:13:52;;;;;;;19.23;4.68;;;;;;;8.26;99.44;102422.63;5067811;28;20043;-84
2021/11/08 09:16:17;;;;;;;28.85;4.53;;;;;;;8.26;99.44;102422.63;5060479;28;20047;-84
2021/11/08 09:18:45;;;;;;;21.50;5.18;;;;;;;8.28;99.31;102420.03;5077218;28;20025;-84
2021/11/08 09:21:11;;;;;;;27.35;5.05;;;;;;;8.32;99.48;102424.34;5056657;28;20039;-84
2021/11/08 09:23:37;;;;;;;20.23;4.68;;;;;;;8.37;99.27;102432.16;5062804;28;20040;-84
2021/11/08 09:26:03;;;;;;;26.75;4.95;;;;;;;8.40;99.40;102434.72;5037790;28;20035;-84
2021/11/08 09:28:29;;;;;;;27.52;6.63;;;;;;;8.43;99.01;102433.00;5043188;28;20036;-84
2021/11/08 09:30:55;;;;;;;23.52;5.15;;;;;;;8.49;99.01;102431.22;5051098;28;20025;-83
2021/11/08 09:33:20;;;;;;;26.75;4.97;;;;;;;8.51;98.87;102432.94;5034297;28;20043;-83
2021/11/08 09:35:49;;;;;;;23.17;5.25;;;;;;;8.52;98.78;102445.13;5055773;28;20036;-82
2021/11/08 09:38:15;;;;;;;20.88;4.85;;;;;;;8.53;98.62;102446.88;5072814;28;20363;-83
2021/11/08 09:40:41;;;;;;;23.40;4.45;;;;;;;8.57;98.10;102440.75;5052142;28;20149;-83
2021/11/08 09:43:19;;;;;;;19.38;4.35;;;;;;;8.61;97.84;102433.75;5073020;28;20024;-83
2021/11/08 09:45:46;;;;;;;13.40;5.03;;;;;;;8.63;97.86;102440.69;5063844;28;20281;-83
2021/11/08 09:48:12;;;;;;;17.50;4.75;;;;;;;8.65;97.83;102438.94;5067586;28;20082;-82
2021/11/08 09:50:38;;;;;;;16.20;4.15;;;;;;;8.68;97.45;102439.78;5076910;28;20060;-83
2021/11/08 09:53:05;;;;;;;19.17;4.38;;;;;;;8.68;97.47;102437.19;5070382;28;20049;-83
2021/11/08 09:55:30;;;;;;;20.42;3.50;;;;;;;8.72;97.45;102438.91;5055917;28;20032;-83
2021/11/08 09:57:56;;;;;;;19.42;3.60;;;;;;;8.71;97.36;102435.41;5048782;28;20340;-83
2021/11/08 10:00:35;;;;;;;20.58;3.80;;;;;;;8.74;97.51;102432.78;5044868;28;20096;-83
2021/11/08 10:03:00;;;;;;;;;;;;;;;8.75;97.46;102442.38;5082657;28;20041;-83
2021/11/08 10:05:31;;;;;;;17.55;3.25;;;;;;;8.77;97.37;102440.59;5077094;28;20281;-83
2021/11/08 10:07:58;;;;;;;17.40;3.30;;;;;;;8.78;97.29;102439.72;5047056;28;20178;-83
2021/11/08 10:10:24;;;;;;;19.42;3.90;;;;;;;8.79;97.67;102438.00;5063476;28;20133;-83
2021/11/08 10:12:54;;;;;;;18.00;3.50;;;;;;;8.81;97.34;102444.94;5046922;28;20036;-83
2021/11/08 10:15:19;;;;;;;20.67;4.45;;;;;;;8.82;97.44;102451.00;5058073;28;20029;-83
2021/11/08 10:17:46;;;;;;;13.23;3.17;;;;;;;8.84;97.36;102446.63;5082562;28;20085;-83
2021/11/08 10:20:12;;;;;;;19.05;3.10;;;;;;;8.85;97.17;102451.00;5079979;28;20211;-83
2021/11/08 10:22:37;;;;;;;21.17;3.08;;;;;;;8.87;97.21;102446.63;5043545;28;20123;-84
2021/11/08 10:25:03;;;;;;;9.20;2.50;;;;;;;8.90;96.91;102446.59;5056865;28;20036;-83
2021/11/08 10:27:47;;;;;;;13.23;2.60;;;;;;;8.91;96.96;102443.09;5076298;28;20028;-83
2021/11/08 10:30:30;;;;;;;14.43;2.60;;;;;;;8.92;97.05;102446.59;5062751;28;20048;-83
2021/11/08 10:33:06;;;;;;;12.63;2.80;;;;;;;8.94;96.81;102445.69;5060936;28;20037;-83
2021/11/08 10:35:47;;;;;;;14.85;2.35;;;;;;;8.95;96.76;102444.81;5056832;28;20040;-83
2021/11/08 10:38:15;;;;;;;16.20;2.88;;;;;;;8.99;96.88;102443.06;5054635;28;20036;-83
2021/11/08 10:40:52;;;;;;;16.08;3.60;;;;;;;9.00;96.58;102450.88;5056506;28;20247;-83
2021/11/08 10:43:32;;;;;;;16.17;3.17;;;;;;;9.01;96.57;102436.94;5050698;28;20055;-83
2021/11/08 10:46:00;;;;;;;20.83;2.85;;;;;;;9.06;96.51;102436.00;5061319;28;20067;-84
2021/11/08 10:48:31;;;;;;;23.90;3.40;;;;;;;9.08;96.45;102431.63;5043238;28;20028;-83
2021/11/08 10:50:58;;;;;;;25.02;2.67;;;;;;;9.06;96.15;102430.78;5064982;28;20062;-83
2021/11/08 10:53:24;;;;;;;9.07;2.13;;;;;;;9.11;95.71;102434.22;5075849;28;20103;-83
2021/11/08 10:55:54;;;;;;;9.98;2.42;;;;;;;9.14;95.73;102439.44;5082513;28;20040;-83
2021/11/08 10:58:20;;;;;;;13.48;2.35;;;;;;;9.15;95.96;102436.81;5079922;28;20051;-83
2021/11/08 11:00:51;;;;;;;12.85;2.65;;;;;;;9.18;95.81;102439.38;5064270;28;20028;-83
2021/11/08 11:03:17;;;;;;;13.18;2.20;;;;;;;9.21;95.73;102438.50;5044427;28;20033;-83
2021/11/08 11:05:43;;;;;;;16.30;2.78;;;;;;;9.21;95.62;102433.28;5062096;28;20362;-83
2021/11/08 11:08:14;;;;;;;15.32;2.58;;;;;;;9.22;95.82;102435.88;5042443;28;20028;-83
2021/11/08 11:10:42;;;;;;;4.55;2.00;;;;;;;9.23;95.11;102437.59;5073851;28;20056;-84
2021/11/08 11:13:12;;;;;;;11.00;2.80;;;;;;;9.22;95.13;102434.97;5062891;28;20058;-83
2021/11/08 11:15:39;;;;;;;8.32;2.15;;;;;;;9.23;94.58;102434.97;5074334;28;20304;-83
2021/11/08 11:18:05;;;;;;;14.15;2.55;;;;;;;9.25;94.98;102440.19;5041900;28;20048;-83
2021/11/08 11:20:34;;;;;;;14.30;2.50;;;;;;;9.28;95.00;102439.28;5043897;28;20029;-83
2021/11/08 11:23:13;;;;;;;14.63;2.63;;;;;;;9.31;95.05;102444.50;5064989;28;20330;-83
2021/11/08 11:25:41;;;;;;;13.02;1.83;;;;;;;9.29;94.10;102441.03;5045226;28;20029;-83
2021/11/08 11:28:07;;;;;;;5.60;1.77;;;;;;;9.31;94.21;102441.88;5060094;28;20048;-83
2021/11/08 11:30:34;;;;;;;12.95;2.90;;;;;;;9.34;94.41;102444.47;5066609;28;20404;-83
2021/11/08 11:33:04;;;;;;;13.63;2.58;;;;;;;9.34;93.84;102440.09;5049208;28;20041;-83
2021/11/08 11:35:40;;;;;;;12.00;2.65;;;;;;;9.36;93.32;102448.78;5076221;28;20373;-83
2021/11/08 11:38:07;;;;;;;11.50;2.65;;;;;;;9.38;93.52;102440.94;5057317;28;20223;-83
2021/11/08 11:40:36;;;;;;;17.63;2.50;;;;;;;9.39;93.64;102445.31;5079919;28;20028;-83
2021/11/08 11:43:03;;;;;;;;;;;;;;;9.40;93.74;102447.91;5059501;28;20064;-83
2021/11/08 11:45:29;;;;;;;10.02;2.05;;;;;;;9.38;93.38;102452.25;5066681;28;19912;-84
2021/11/08 11:48:03;;;;;;;12.30;2.40;;;;;;;9.34;92.19;102449.69;5076642;28;20032;-83
2021/11/08 11:50:29;;;;;;;16.30;2.30;;;;;;;9.34;91.55;102445.34;5060382;28;20211;-83
2021/11/08 11:52:55;;;;;;;13.75;2.75;;;;;;;9.36;92.88;102447.94;5087888;28;20048;-83
2021/11/08 11:55:20;;;;;;;15.70;2.08;;;;;;;9.34;93.38;102439.25;5067248;28;20081;-83
2021/11/08 11:57:46;;;;;;;9.00;2.70;;;;;;;9.33;93.84;102443.63;5080826;28;20044;-84
2021/11/08 12:00:12;;;;;;;16.50;2.42;;;;;;;9.31;94.23;102440.13;5065011;28;20355;-83
2021/11/08 12:02:38;;;;;;;9.85;2.03;;;;;;;9.30;94.29;102437.56;5065799;28;20111;-84
2021/11/08 12:05:04;;;;;;;11.25;2.22;;;;;;;9.30;94.35;102440.16;5061564;28;20044;-83
2021/11/08 12:07:30;;;;;;;19.08;2.85;;;;;;;9.25;94.04;102432.34;5073726;28;20034;-83
2021/11/08 12:09:55;;;;;;;6.50;2.00;;;;;;;9.29;92.55;102439.28;5050669;28;20043;-83
2021/11/08 12:12:25;;;;;;;15.32;2.33;;;;;;;9.33;93.84;102440.13;5074926;28;20043;-83
2021/11/08 12:15:08;;;;;;;20.05;2.55;;;;;;;9.34;93.82;102439.25;5077173;28;20563;-83
2021/11/08 12:17:40;;;;;;;15.85;3.72;;;;;;;9.36;94.29;102443.56;5080836;28;20111;-83
2021/11/08 12:20:08;;;;;;;13.57;2.47;;;;;;;9.36;94.20;102435.72;5097254;28;20070;-83
2021/11/08 12:22:34;;;;;;;13.80;2.37;;;;;;;9.36;94.50;102437.47;5068414;28;20044;-83
2021/11/08 12:25:03;;;;;;;14.13;2.45;;;;;;;9.37;94.49;102434.84;5078242;28;20343;-83
2021/11/08 12:27:41;;;;;;;11.30;2.13;;;;;;;9.37;94.73;102434.84;5081730;28;20120;-83
2021/11/08 12:30:17;;;;;;;12.63;2.47;;;;;;;9.38;95.00;102428.72;5094783;28;20040;-83
2021/11/08 12:32:51;;;;;;;11.73;2.22;;;;;;;9.39;94.61;102427.00;5057125;28;20103;-83
2021/11/08 12:35:22;;;;;;;14.15;2.78;;;;;;;9.41;94.45;102425.22;5056603;28;20062;-83
2021/11/08 12:37:48;;;;;;;24.45;2.55;;;;;;;9.42;94.79;102426.94;5062783;28;20051;-83
2021/11/08 12:40:16;;;;;;;19.65;3.00;;;;;;;9.38;93.63;102422.63;5056867;28;20032;-83
2021/11/08 12:42:42;;;;;;;8.65;2.80;;;;;;;9.45;93.64;102436.53;5062773;28;20036;-83
2021/11/08 12:45:27;;;;;;;8.77;2.83;;;;;;;9.45;92.33;102431.28;5071575;28;20051;-83
2021/11/08 12:48:12;;;;;;;16.08;2.42;;;;;;;9.48;92.93;102429.50;5080330;28;20044;-83
2021/11/08 12:50:41;;;;;;;15.77;3.13;;;;;;;9.49;93.56;102427.75;5059688;28;20510;-83
2021/11/08 12:53:18;;;;;;;15.15;2.38;;;;;;;9.51;93.81;102433.84;5055449;28;20038;-83
2021/11/08 12:55:44;;;;;;;9.25;2.63;;;;;;;9.49;93.87;102427.75;5063513;28;20433;-83
2021/11/08 12:58:11;;;;;;;14.93;3.10;;;;;;;9.48;94.28;102415.56;5055622;28;20043;-83
2021/11/08 13:00:41;;;;;;;20.17;2.65;;;;;;;9.47;94.22;102424.28;5085593;28;20051;-83
2021/11/08 13:03:16;;;;;;;11.35;2.78;;;;;;;9.46;94.36;102423.44;5070021;28;20044;-83
2021/11/08 13:05:46;;;;;;;15.02;2.95;;;;;;;9.47;94.65;102419.06;5051986;28;20224;-83
2021/11/08 13:08:30;;;;;;;15.80;2.83;;;;;;;9.46;94.59;102427.78;5085740;28;20334;-83
2021/11/08 13:10:59;;;;;;;16.02;3.90;;;;;;;9.45;94.75;102426.91;5088792;28;20259;-83
2021/11/08 13:13:24;;;;;;;15.05;2.78;;;;;;;9.45;94.47;102423.44;5096721;28;20036;-83
2021/11/08 13:15:50;;;;;;;12.85;2.20;;;;;;;9.45;94.81;102423.44;5092051;28;20038;-83